createdAt,value
2017-08-28T00:00:30.444Z,99.99
2017-08-28T00:01:31.852Z,99.99
2017-08-28T00:02:33.284Z,99.99
2017-08-28T00:03:34.711Z,99.99
2017-08-28T00:04:36.121Z,99.99
2017-08-28T00:05:37.542Z,99.99
2017-08-28T00:06:38.959Z,99.99
2017-08-28T00:07:40.387Z,99.99
2017-08-28T00:08:41.815Z,99.99
2017-08-28T00:09:43.236Z,99.99
2017-08-28T00:10:44.658Z,99.99
2017-08-28T00:11:46.173Z,99.99
2017-08-28T00:12:47.600Z,99.99
2017-08-28T00:13:49.026Z,99.99
2017-08-28T00:14:50.437Z,99.99
2017-08-28T00:15:51.897Z,99.99
2017-08-28T00:16:53.317Z,99.99
2017-08-28T00:17:54.739Z,99.99
2017-08-28T00:18:56.190Z,99.99
2017-08-28T00:19:57.620Z,99.99
2017-08-28T00:20:59.037Z,99.99
2017-08-28T00:22:00.465Z,99.99
2017-08-28T00:23:01.961Z,99.99
2017-08-28T00:24:03.370Z,99.99
2017-08-28T00:25:04.793Z,99.99
2017-08-28T00:26:06.274Z,99.99
2017-08-28T00:27:07.698Z,99.99
2017-08-28T00:28:09.117Z,99.99
2017-08-28T00:29:10.547Z,99.99
2017-08-28T00:30:11.964Z,99.99
2017-08-28T00:31:13.396Z,99.99
2017-08-28T00:32:14.816Z,99.99
2017-08-28T00:33:16.238Z,99.99
2017-08-28T00:34:17.658Z,99.99
2017-08-28T00:35:19.077Z,99.99
2017-08-28T00:36:20.495Z,99.99
2017-08-28T00:37:21.913Z,99.99
2017-08-28T00:38:23.343Z,99.99
2017-08-28T00:39:24.757Z,99.99
2017-08-28T00:40:26.178Z,99.99
2017-08-28T00:41:27.601Z,99.99
2017-08-28T00:42:29.016Z,99.99
2017-08-28T00:43:30.434Z,99.99
2017-08-28T00:44:31.858Z,99.99
2017-08-28T00:45:33.289Z,99.99
2017-08-28T00:46:34.706Z,99.99
2017-08-28T00:47:36.121Z,99.99
2017-08-28T00:48:37.545Z,99.99
2017-08-28T00:49:38.960Z,99.99
2017-08-28T00:50:40.383Z,99.99
2017-08-28T00:51:41.808Z,99.99
2017-08-28T00:52:43.233Z,99.99
2017-08-28T00:53:44.657Z,99.99
2017-08-28T00:54:46.084Z,99.99
2017-08-28T00:55:47.506Z,99.99
2017-08-28T00:56:48.926Z,99.99
2017-08-28T00:57:50.345Z,99.99
2017-08-28T00:58:51.762Z,99.99
2017-08-28T00:59:53.176Z,99.99
2017-08-28T01:00:54.604Z,99.99
2017-08-28T01:01:56.590Z,99.99
2017-08-28T01:02:58.019Z,99.99
2017-08-28T01:03:59.438Z,99.99
2017-08-28T01:05:00.858Z,99.99
2017-08-28T01:06:02.281Z,99.99
2017-08-28T01:07:03.704Z,99.99
2017-08-28T01:08:05.129Z,99.99
2017-08-28T01:09:06.544Z,99.99
2017-08-28T01:10:07.968Z,99.99
2017-08-28T01:11:09.390Z,99.99
2017-08-28T01:12:10.817Z,99.99
2017-08-28T01:13:12.235Z,99.99
2017-08-28T01:14:13.657Z,99.99
2017-08-28T01:15:15.078Z,99.99
2017-08-28T01:16:16.495Z,99.99
2017-08-28T01:17:17.919Z,99.99
2017-08-28T01:18:19.338Z,99.99
2017-08-28T01:19:20.754Z,99.99
2017-08-28T01:20:22.171Z,99.99
2017-08-28T01:21:23.597Z,99.99
2017-08-28T01:22:25.021Z,99.99
2017-08-28T01:23:26.448Z,99.99
2017-08-28T01:24:27.868Z,99.99
2017-08-28T01:25:29.290Z,99.99
2017-08-28T01:26:30.720Z,99.99
2017-08-28T01:27:32.140Z,99.99
2017-08-28T01:28:33.561Z,99.99
2017-08-28T01:29:34.990Z,99.99
2017-08-28T01:30:36.408Z,99.99
2017-08-28T01:31:37.826Z,99.99
2017-08-28T01:32:40.098Z,99.99
2017-08-28T01:33:41.533Z,99.99
2017-08-28T01:34:42.949Z,99.99
2017-08-28T01:35:44.372Z,99.99
2017-08-28T01:36:45.791Z,99.99
2017-08-28T01:37:47.219Z,99.99
2017-08-28T01:38:48.637Z,99.99
2017-08-28T01:39:50.055Z,99.99
2017-08-28T01:40:51.478Z,99.99
2017-08-28T01:41:52.893Z,99.99
2017-08-28T01:42:54.314Z,99.99
2017-08-28T01:43:55.742Z,99.99
2017-08-28T01:44:57.162Z,99.99
2017-08-28T01:45:58.583Z,99.99
2017-08-28T01:47:00.002Z,99.99
2017-08-28T01:48:01.421Z,99.99
2017-08-28T01:49:02.838Z,99.99
2017-08-28T01:50:04.262Z,99.99
2017-08-28T01:51:05.680Z,99.99
2017-08-28T01:52:07.097Z,99.99
2017-08-28T01:53:08.515Z,99.99
2017-08-28T01:54:09.938Z,99.99
2017-08-28T01:55:11.354Z,99.99
2017-08-28T01:56:12.786Z,99.99
2017-08-28T01:57:14.202Z,99.99
2017-08-28T01:58:15.618Z,99.99
2017-08-28T01:59:17.035Z,99.99
2017-08-28T02:00:18.454Z,99.99
2017-08-28T02:01:19.877Z,99.99
2017-08-28T02:02:21.315Z,99.99
2017-08-28T02:03:22.741Z,99.99
2017-08-28T02:04:24.150Z,99.99
2017-08-28T02:05:25.570Z,99.99
2017-08-28T02:06:26.994Z,99.99
2017-08-28T02:07:28.410Z,99.99
2017-08-28T02:08:29.823Z,99.99
2017-08-28T02:09:31.237Z,99.99
2017-08-28T02:10:32.657Z,99.99
2017-08-28T02:11:34.080Z,99.99
2017-08-28T02:12:35.524Z,99.99
2017-08-28T02:13:36.948Z,99.99
2017-08-28T02:14:38.388Z,99.99
2017-08-28T02:15:39.810Z,99.99
2017-08-28T02:16:41.232Z,99.99
2017-08-28T02:17:42.669Z,99.99
2017-08-28T02:18:44.088Z,99.99
2017-08-28T02:19:45.507Z,99.99
2017-08-28T02:20:46.932Z,99.99
2017-08-28T02:21:48.899Z,99.99
2017-08-28T02:22:50.318Z,99.99
2017-08-28T02:23:51.748Z,99.99
2017-08-28T02:24:53.169Z,99.99
2017-08-28T02:25:54.591Z,99.99
2017-08-28T02:26:56.013Z,99.99
2017-08-28T02:27:57.430Z,99.99
2017-08-28T02:28:58.855Z,99.99
2017-08-28T02:30:00.270Z,99.99
2017-08-28T02:31:01.682Z,99.99
2017-08-28T02:32:03.111Z,99.99
2017-08-28T02:33:04.532Z,99.99
2017-08-28T02:34:05.955Z,99.99
2017-08-28T02:35:07.372Z,99.99
2017-08-28T02:36:08.797Z,99.99
2017-08-28T02:37:10.216Z,99.99
2017-08-28T02:38:11.729Z,99.99
2017-08-28T02:39:13.153Z,99.99
2017-08-28T02:40:14.572Z,99.99
2017-08-28T02:41:15.990Z,99.99
2017-08-28T02:42:17.411Z,99.99
2017-08-28T02:43:18.838Z,99.99
2017-08-28T02:44:20.257Z,99.99
2017-08-28T02:45:21.779Z,99.99
2017-08-28T02:46:23.194Z,99.99
2017-08-28T02:47:24.621Z,99.99
2017-08-28T02:48:26.102Z,99.99
2017-08-28T02:49:27.538Z,99.99
2017-08-28T02:50:28.953Z,99.99
2017-08-28T02:51:30.383Z,99.99
2017-08-28T02:52:32.621Z,99.99
2017-08-28T02:53:34.048Z,99.99
2017-08-28T02:54:35.470Z,99.99
2017-08-28T02:55:36.902Z,99.99
2017-08-28T02:56:38.323Z,99.99
2017-08-28T02:57:39.743Z,99.99
2017-08-28T02:58:41.172Z,99.99
2017-08-28T02:59:42.590Z,99.99
2017-08-28T03:00:44.014Z,99.99
2017-08-28T03:01:45.425Z,99.99
2017-08-28T03:02:46.849Z,99.99
2017-08-28T03:03:48.272Z,99.99
2017-08-28T03:04:49.689Z,99.99
2017-08-28T03:05:51.104Z,99.99
2017-08-28T03:06:52.527Z,99.99
2017-08-28T03:07:54.649Z,99.99
2017-08-28T03:08:56.074Z,99.99
2017-08-28T03:09:57.501Z,99.99
2017-08-28T03:10:58.925Z,99.99
2017-08-28T03:12:00.347Z,99.99
2017-08-28T03:13:01.768Z,99.99
2017-08-28T03:14:04.744Z,99.99
2017-08-28T03:15:06.162Z,99.99
2017-08-28T03:16:07.593Z,99.99
2017-08-28T03:17:09.014Z,99.99
2017-08-28T03:18:10.436Z,99.99
2017-08-28T03:19:11.863Z,99.99
2017-08-28T03:20:13.282Z,99.99
2017-08-28T03:21:14.699Z,99.99
2017-08-28T03:22:16.117Z,99.99
2017-08-28T03:23:17.542Z,99.99
2017-08-28T03:24:19.147Z,99.99
2017-08-28T03:25:20.577Z,99.99
2017-08-28T03:26:22.003Z,99.99
2017-08-28T03:27:23.432Z,99.99
2017-08-28T03:28:24.861Z,99.99
2017-08-28T03:29:26.285Z,99.99
2017-08-28T03:30:27.706Z,99.99
2017-08-28T03:31:29.129Z,99.99
2017-08-28T03:32:30.556Z,99.99
2017-08-28T03:33:31.983Z,99.99
2017-08-28T03:34:33.402Z,99.99
2017-08-28T03:35:34.815Z,99.99
2017-08-28T03:36:36.236Z,99.99
2017-08-28T03:37:37.665Z,99.99
2017-08-28T03:38:39.092Z,99.99
2017-08-28T03:39:40.510Z,99.99
2017-08-28T03:40:41.927Z,99.99
2017-08-28T03:41:43.351Z,99.99
2017-08-28T03:42:44.772Z,99.99
2017-08-28T03:43:46.194Z,99.99
2017-08-28T03:44:47.614Z,99.99
2017-08-28T03:45:49.030Z,99.99
2017-08-28T03:46:50.453Z,99.99
2017-08-28T03:47:51.869Z,99.99
2017-08-28T03:48:53.289Z,99.99
2017-08-28T03:49:54.712Z,99.99
2017-08-28T03:50:56.132Z,99.99
2017-08-28T03:51:57.552Z,99.99
2017-08-28T03:52:58.973Z,99.99
2017-08-28T03:54:00.395Z,99.99
2017-08-28T03:55:01.828Z,99.99
2017-08-28T03:56:03.251Z,99.99
2017-08-28T03:57:04.670Z,99.99
2017-08-28T03:58:06.089Z,99.99
2017-08-28T03:59:07.512Z,99.99
2017-08-28T04:00:08.938Z,99.99
2017-08-28T04:01:10.360Z,99.99
2017-08-28T04:02:11.784Z,99.99
2017-08-28T04:03:13.221Z,99.99
2017-08-28T04:04:14.639Z,99.99
2017-08-28T04:05:16.058Z,99.99
2017-08-28T04:06:17.474Z,99.99
2017-08-28T04:07:18.897Z,99.99
2017-08-28T04:08:20.331Z,99.99
2017-08-28T04:09:21.752Z,99.99
2017-08-28T04:10:23.170Z,99.99
2017-08-28T04:11:24.601Z,99.99
2017-08-28T04:12:26.075Z,99.99
2017-08-28T04:13:27.506Z,99.99
2017-08-28T04:14:28.928Z,99.99
2017-08-28T04:15:30.351Z,99.99
2017-08-28T04:16:31.773Z,99.99
2017-08-28T04:17:33.195Z,99.99
2017-08-28T04:18:34.618Z,99.99
2017-08-28T04:19:36.037Z,99.99
2017-08-28T04:20:37.454Z,99.99
2017-08-28T04:21:38.873Z,99.99
2017-08-28T04:22:40.298Z,99.99
2017-08-28T04:23:41.717Z,99.99
2017-08-28T04:24:43.141Z,99.99
2017-08-28T04:25:44.553Z,99.99
2017-08-28T04:26:45.973Z,99.99
2017-08-28T04:27:47.393Z,99.99
2017-08-28T04:28:48.815Z,99.99
2017-08-28T04:29:50.234Z,99.99
2017-08-28T04:30:51.649Z,99.99
2017-08-28T04:31:53.081Z,99.99
2017-08-28T04:32:54.508Z,99.99
2017-08-28T04:33:55.928Z,99.99
2017-08-28T04:34:57.345Z,99.99
2017-08-28T04:35:58.771Z,99.99
2017-08-28T04:37:00.194Z,99.99
2017-08-28T04:38:01.601Z,99.99
2017-08-28T04:39:03.018Z,99.99
2017-08-28T04:40:04.437Z,99.99
2017-08-28T04:41:05.922Z,99.99
2017-08-28T04:42:07.341Z,99.99
2017-08-28T04:43:08.767Z,99.99
2017-08-28T04:44:10.189Z,99.99
2017-08-28T04:45:11.617Z,99.99
2017-08-28T04:46:13.052Z,99.99
2017-08-28T04:47:14.495Z,99.99
2017-08-28T04:48:15.925Z,99.99
2017-08-28T04:49:17.346Z,99.99
2017-08-28T04:50:18.764Z,99.99
2017-08-28T04:51:20.196Z,99.99
2017-08-28T04:52:21.606Z,99.99
2017-08-28T04:53:23.028Z,99.99
2017-08-28T04:54:24.450Z,99.99
2017-08-28T04:55:25.872Z,99.99
2017-08-28T04:56:27.291Z,99.99
2017-08-28T04:57:28.713Z,99.99
2017-08-28T04:58:30.134Z,99.99
2017-08-28T04:59:31.552Z,99.99
2017-08-28T05:00:32.984Z,99.99
2017-08-28T05:01:34.418Z,99.99
2017-08-28T05:02:35.842Z,99.99
2017-08-28T05:03:37.281Z,99.99
2017-08-28T05:04:38.703Z,99.99
2017-08-28T05:05:40.121Z,99.99
2017-08-28T05:06:41.545Z,99.99
2017-08-28T05:07:42.969Z,99.99
2017-08-28T05:08:44.398Z,99.99
2017-08-28T05:09:45.820Z,99.99
2017-08-28T05:10:47.247Z,99.99
2017-08-28T05:11:48.671Z,99.99
2017-08-28T05:12:50.095Z,99.99
2017-08-28T05:13:51.524Z,99.99
2017-08-28T05:14:52.948Z,99.99
2017-08-28T05:15:54.372Z,99.99
2017-08-28T05:16:55.793Z,99.99
2017-08-28T05:17:57.221Z,99.99
2017-08-28T05:18:58.639Z,99.99
2017-08-28T05:20:00.065Z,99.99
2017-08-28T05:21:01.484Z,99.99
2017-08-28T05:22:02.911Z,99.99
2017-08-28T05:23:04.343Z,99.99
2017-08-28T05:24:05.762Z,99.99
2017-08-28T05:25:07.189Z,99.99
2017-08-28T05:26:08.615Z,99.99
2017-08-28T05:27:10.036Z,99.99
2017-08-28T05:28:11.470Z,99.99
2017-08-28T05:29:12.890Z,99.99
2017-08-28T05:30:14.310Z,99.99
2017-08-28T05:31:15.731Z,99.99
2017-08-28T05:32:17.157Z,99.99
2017-08-28T05:33:18.588Z,99.99
2017-08-28T05:34:20.034Z,99.99
2017-08-28T05:35:21.462Z,99.99
2017-08-28T05:36:22.887Z,99.99
2017-08-28T05:37:24.305Z,99.99
2017-08-28T05:38:25.728Z,99.99
2017-08-28T05:39:29.547Z,99.99
2017-08-28T05:40:30.999Z,99.99
2017-08-28T05:41:32.422Z,99.99
2017-08-28T05:42:33.847Z,99.99
2017-08-28T05:43:35.264Z,99.99
2017-08-28T05:44:36.691Z,99.99
2017-08-28T05:45:38.116Z,99.99
2017-08-28T05:46:39.541Z,99.99
2017-08-28T05:47:40.982Z,99.99
2017-08-28T05:48:42.397Z,99.99
2017-08-28T05:49:43.817Z,99.99
2017-08-28T05:50:45.238Z,99.99
2017-08-28T05:51:46.657Z,99.99
2017-08-28T05:52:48.079Z,99.99
2017-08-28T05:53:49.502Z,99.99
2017-08-28T05:54:50.933Z,99.99
2017-08-28T05:55:52.351Z,99.99
2017-08-28T05:56:53.772Z,99.99
2017-08-28T05:57:55.213Z,99.99
2017-08-28T05:58:56.638Z,99.99
2017-08-28T05:59:58.049Z,99.99
2017-08-28T06:00:59.494Z,99.99
2017-08-28T06:02:00.917Z,99.99
2017-08-28T06:03:02.391Z,99.99
2017-08-28T06:04:03.816Z,99.99
2017-08-28T06:05:05.240Z,99.99
2017-08-28T06:06:06.660Z,99.99
2017-08-28T06:07:08.107Z,99.99
2017-08-28T06:08:09.543Z,99.99
2017-08-28T06:09:10.965Z,99.99
2017-08-28T06:10:12.384Z,99.99
2017-08-28T06:11:13.811Z,99.99
2017-08-28T06:12:15.233Z,99.99
2017-08-28T06:13:16.655Z,99.99
2017-08-28T06:14:18.073Z,99.99
2017-08-28T06:15:19.492Z,99.99
2017-08-28T06:16:20.918Z,99.99
2017-08-28T06:17:22.352Z,99.99
2017-08-28T06:18:23.789Z,99.99
2017-08-28T06:19:25.218Z,99.99
2017-08-28T06:20:26.636Z,99.99
2017-08-28T06:21:28.061Z,99.99
2017-08-28T06:22:29.486Z,99.99
2017-08-28T06:23:30.926Z,99.99
2017-08-28T06:24:32.353Z,99.99
2017-08-28T06:25:33.775Z,99.99
2017-08-28T06:26:35.198Z,99.99
2017-08-28T06:27:36.626Z,99.99
2017-08-28T06:28:38.046Z,99.99
2017-08-28T06:29:39.473Z,99.99
2017-08-28T06:30:40.895Z,99.99
2017-08-28T06:31:42.316Z,99.99
2017-08-28T06:32:43.747Z,99.99
2017-08-28T06:33:45.169Z,99.99
2017-08-28T06:34:46.592Z,99.99
2017-08-28T06:35:48.012Z,99.99
2017-08-28T06:36:49.440Z,99.99
2017-08-28T06:37:51.589Z,99.99
2017-08-28T06:38:53.012Z,99.99
2017-08-28T06:39:54.435Z,99.99
2017-08-28T06:40:55.863Z,99.99
2017-08-28T06:41:57.284Z,99.99
2017-08-28T06:42:58.722Z,99.99
2017-08-28T06:44:00.196Z,99.99
2017-08-28T06:45:01.617Z,99.99
2017-08-28T06:46:03.043Z,99.99
2017-08-28T06:47:04.469Z,99.99
2017-08-28T06:48:05.944Z,99.99
2017-08-28T06:49:07.364Z,99.99
2017-08-28T06:50:08.785Z,99.99
2017-08-28T06:51:10.309Z,99.99
2017-08-28T06:52:11.735Z,99.99
2017-08-28T06:53:13.167Z,99.99
2017-08-28T06:54:14.588Z,99.99
2017-08-28T06:55:16.058Z,99.99
2017-08-28T06:56:17.485Z,99.99
2017-08-28T06:57:18.909Z,99.99
2017-08-28T06:58:20.421Z,99.99
2017-08-28T06:59:21.854Z,99.99
2017-08-28T07:00:23.279Z,99.99
2017-08-28T07:01:24.708Z,99.99
2017-08-28T07:02:26.139Z,99.99
2017-08-28T07:03:27.560Z,99.99
2017-08-28T07:04:28.984Z,99.99
2017-08-28T07:05:30.408Z,99.99
2017-08-28T07:06:31.832Z,99.99
2017-08-28T07:07:33.288Z,99.99
2017-08-28T07:08:34.703Z,99.99
2017-08-28T07:09:36.122Z,99.99
2017-08-28T07:10:37.557Z,99.99
2017-08-28T07:11:38.985Z,99.99
2017-08-28T07:12:40.407Z,99.99
2017-08-28T07:13:41.834Z,99.99
2017-08-28T07:14:43.258Z,99.99
2017-08-28T07:15:44.693Z,99.99
2017-08-28T07:16:46.119Z,99.99
2017-08-28T07:17:47.546Z,99.99
2017-08-28T07:18:48.966Z,99.99
2017-08-28T07:19:50.390Z,99.99
2017-08-28T07:20:51.818Z,99.99
2017-08-28T07:21:53.247Z,99.99
2017-08-28T07:22:54.686Z,99.99
2017-08-28T07:23:56.103Z,99.99
2017-08-28T07:24:57.554Z,99.99
2017-08-28T07:25:58.977Z,99.99
2017-08-28T07:27:00.408Z,99.99
2017-08-28T07:28:01.830Z,99.99
2017-08-28T07:29:03.258Z,99.99
2017-08-28T07:30:04.682Z,99.99
2017-08-28T07:31:06.102Z,99.99
2017-08-28T07:32:07.525Z,99.99
2017-08-28T07:33:08.956Z,99.99
2017-08-28T07:34:10.367Z,99.99
2017-08-28T07:35:11.792Z,99.99
2017-08-28T07:36:13.215Z,99.99
2017-08-28T07:37:14.633Z,99.99
2017-08-28T07:38:16.079Z,99.99
2017-08-28T07:39:17.501Z,99.99
2017-08-28T07:40:18.923Z,99.99
2017-08-28T07:41:20.351Z,99.99
2017-08-28T07:42:21.778Z,99.99
2017-08-28T07:43:23.204Z,99.99
2017-08-28T07:44:24.625Z,99.99
2017-08-28T07:45:26.053Z,99.99
2017-08-28T07:46:27.481Z,99.99
2017-08-28T07:47:28.906Z,99.99
2017-08-28T07:48:30.326Z,99.99
2017-08-28T07:49:31.749Z,99.99
2017-08-28T07:50:33.171Z,99.99
2017-08-28T07:51:34.601Z,99.99
2017-08-28T07:52:36.040Z,99.99
2017-08-28T07:53:37.464Z,99.99
2017-08-28T07:54:38.885Z,99.99
2017-08-28T07:55:40.318Z,99.99
2017-08-28T07:56:41.750Z,99.99
2017-08-28T07:57:43.169Z,99.99
2017-08-28T07:58:44.596Z,99.99
2017-08-28T07:59:46.024Z,99.99
2017-08-28T08:00:47.445Z,99.99
2017-08-28T08:01:48.868Z,99.99
2017-08-28T08:02:50.300Z,99.99
2017-08-28T08:03:51.725Z,99.99
2017-08-28T08:04:53.155Z,99.99
2017-08-28T08:05:54.574Z,99.99
2017-08-28T08:06:56.001Z,99.99
2017-08-28T08:07:57.432Z,99.99
2017-08-28T08:08:58.860Z,99.99
2017-08-28T08:10:00.288Z,99.99
2017-08-28T08:11:01.743Z,99.99
2017-08-28T08:12:03.163Z,99.99
2017-08-28T08:13:04.602Z,99.99
2017-08-28T08:14:06.022Z,99.99
2017-08-28T08:15:07.454Z,99.99
2017-08-28T08:16:08.885Z,99.99
2017-08-28T08:17:10.310Z,99.99
2017-08-28T08:18:11.747Z,99.99
2017-08-28T08:19:13.171Z,99.99
2017-08-28T08:20:14.596Z,99.99
2017-08-28T08:21:16.019Z,99.99
2017-08-28T08:22:17.440Z,99.99
2017-08-28T08:23:18.873Z,99.99
2017-08-28T08:24:20.301Z,99.99
2017-08-28T08:25:21.732Z,99.99
2017-08-28T08:26:23.164Z,99.99
2017-08-28T08:27:24.590Z,99.99
2017-08-28T08:28:26.011Z,99.99
2017-08-28T08:29:27.430Z,99.99
2017-08-28T08:30:28.854Z,99.99
2017-08-28T08:31:30.275Z,99.99
2017-08-28T08:32:31.703Z,99.99
2017-08-28T08:33:33.134Z,99.99
2017-08-28T08:34:35.216Z,99.99
2017-08-28T08:35:36.644Z,99.99
2017-08-28T08:36:38.076Z,99.99
2017-08-28T08:37:39.504Z,99.99
2017-08-28T08:38:40.943Z,99.99
2017-08-28T08:39:42.369Z,99.99
2017-08-28T08:40:43.793Z,99.99
2017-08-28T08:41:45.218Z,99.99
2017-08-28T08:42:46.641Z,99.99
2017-08-28T08:43:48.074Z,99.99
2017-08-28T08:44:49.513Z,99.99
2017-08-28T08:45:50.935Z,99.99
2017-08-28T08:46:52.365Z,99.99
2017-08-28T08:47:53.788Z,99.99
2017-08-28T08:48:55.249Z,99.99
2017-08-28T08:49:56.645Z,99.99
2017-08-28T08:50:58.076Z,99.99
2017-08-28T08:51:59.500Z,99.99
2017-08-28T08:53:00.931Z,99.99
2017-08-28T08:54:02.352Z,99.99
2017-08-28T08:55:03.784Z,98.78
2017-08-28T08:56:05.214Z,99.99
2017-08-28T08:57:06.656Z,99.99
2017-08-28T08:58:08.079Z,99.99
2017-08-28T08:59:09.511Z,99.99
2017-08-28T09:00:10.932Z,99.99
2017-08-28T09:01:12.364Z,99.99
2017-08-28T09:02:13.807Z,99.99
2017-08-28T09:03:15.240Z,99.99
2017-08-28T09:04:16.669Z,99.99
2017-08-28T09:05:18.097Z,99.99
2017-08-28T09:06:19.525Z,99.99
2017-08-28T09:07:20.973Z,99.99
2017-08-28T09:08:22.405Z,99.94
2017-08-28T09:09:23.839Z,99.11
2017-08-28T09:10:25.262Z,99.99
2017-08-28T09:11:26.704Z,99.99
2017-08-28T09:12:28.136Z,98.68
2017-08-28T09:13:29.564Z,99.07
2017-08-28T09:14:30.998Z,99.07
2017-08-28T09:15:32.512Z,98.00
2017-08-28T09:16:33.963Z,98.00
2017-08-28T09:17:35.395Z,98.88
2017-08-28T09:18:36.821Z,98.00
2017-08-28T09:19:38.249Z,97.14
2017-08-28T09:20:39.676Z,97.28
2017-08-28T09:21:41.119Z,96.89
2017-08-28T09:22:42.559Z,97.47
2017-08-28T09:23:43.995Z,98.15
2017-08-28T09:24:45.427Z,97.86
2017-08-28T09:25:46.853Z,97.09
2017-08-28T09:26:48.284Z,97.38
2017-08-28T09:27:49.712Z,96.66
2017-08-28T09:28:51.146Z,96.12
2017-08-28T09:29:52.575Z,96.22
2017-08-28T09:30:54.000Z,95.93
2017-08-28T09:31:56.149Z,95.25
2017-08-28T09:32:57.581Z,95.06
2017-08-28T09:33:59.003Z,94.04
2017-08-28T09:35:00.428Z,94.72
2017-08-28T09:36:01.945Z,94.82
2017-08-28T09:37:03.378Z,94.91
2017-08-28T09:38:04.805Z,95.30
2017-08-28T09:39:06.237Z,96.46
2017-08-28T09:40:07.667Z,98.10
2017-08-28T09:41:09.099Z,96.41
2017-08-28T09:42:10.534Z,93.32
2017-08-28T09:43:11.968Z,93.99
2017-08-28T09:44:13.396Z,90.70
2017-08-28T09:45:14.833Z,92.64
2017-08-28T09:46:16.262Z,91.43
2017-08-28T09:47:17.708Z,92.79
2017-08-28T09:48:19.146Z,93.51
2017-08-28T09:49:20.573Z,93.70
2017-08-28T09:50:22.078Z,92.88
2017-08-28T09:51:23.502Z,92.83
2017-08-28T09:52:24.926Z,94.62
2017-08-28T09:53:26.362Z,93.41
2017-08-28T09:54:27.795Z,90.90
2017-08-28T09:55:29.227Z,90.41
2017-08-28T09:56:30.650Z,91.04
2017-08-28T09:57:32.086Z,89.69
2017-08-28T09:58:33.517Z,91.04
2017-08-28T09:59:34.943Z,92.30
2017-08-28T10:00:36.367Z,91.33
2017-08-28T10:01:37.885Z,93.26
2017-08-28T10:02:39.338Z,93.12
2017-08-28T10:03:40.780Z,90.46
2017-08-28T10:04:42.207Z,90.46
2017-08-28T10:05:43.711Z,89.53
2017-08-28T10:06:45.148Z,92.05
2017-08-28T10:07:46.584Z,91.18
2017-08-28T10:08:48.016Z,93.41
2017-08-28T10:09:49.447Z,93.65
2017-08-28T10:10:50.877Z,91.56
2017-08-28T10:11:52.309Z,92.54
2017-08-28T10:12:53.826Z,90.41
2017-08-28T10:13:55.254Z,90.31
2017-08-28T10:14:56.691Z,87.99
2017-08-28T10:15:58.136Z,85.28
2017-08-28T10:16:59.574Z,86.38
2017-08-28T10:18:01.016Z,89.25
2017-08-28T10:19:02.457Z,87.60
2017-08-28T10:20:03.897Z,85.96
2017-08-28T10:21:05.330Z,88.23
2017-08-28T10:22:06.756Z,88.13
2017-08-28T10:23:08.194Z,88.32
2017-08-28T10:24:09.631Z,88.42
2017-08-28T10:25:11.062Z,89.00
2017-08-28T10:26:12.493Z,89.19
2017-08-28T10:27:13.926Z,86.38
2017-08-28T10:28:15.369Z,84.99
2017-08-28T10:29:16.815Z,85.08
2017-08-28T10:30:18.262Z,84.55
2017-08-28T10:31:19.714Z,81.83
2017-08-28T10:32:21.146Z,79.99
2017-08-28T10:33:22.577Z,79.60
2017-08-28T10:34:24.009Z,80.19
2017-08-28T10:35:25.435Z,79.84
2017-08-28T10:36:26.860Z,80.57
2017-08-28T10:37:28.296Z,79.70
2017-08-28T10:38:29.723Z,81.20
2017-08-28T10:39:31.152Z,81.10
2017-08-28T10:40:32.590Z,80.75
2017-08-28T10:41:34.023Z,79.10
2017-08-28T10:42:35.450Z,79.16
2017-08-28T10:43:36.883Z,82.26
2017-08-28T10:44:38.320Z,81.58
2017-08-28T10:45:39.760Z,81.77
2017-08-28T10:46:41.195Z,82.98
2017-08-28T10:47:42.623Z,83.27
2017-08-28T10:48:44.057Z,81.87
2017-08-28T10:49:45.495Z,82.07
2017-08-28T10:50:46.926Z,81.00
2017-08-28T10:51:48.361Z,80.42
2017-08-28T10:52:49.797Z,80.17
2017-08-28T10:53:51.226Z,80.26
2017-08-28T10:54:52.658Z,78.71
2017-08-28T10:55:54.090Z,79.33
2017-08-28T10:56:55.522Z,81.08
2017-08-28T10:57:56.953Z,83.45
2017-08-28T10:58:58.384Z,84.03
2017-08-28T10:59:59.819Z,81.90
2017-08-28T11:01:01.250Z,79.76
2017-08-28T11:02:02.692Z,80.05
2017-08-28T11:03:04.122Z,81.16
2017-08-28T11:04:05.544Z,81.16
2017-08-28T11:05:06.971Z,80.19
2017-08-28T11:06:08.403Z,82.23
2017-08-28T11:07:09.835Z,81.55
2017-08-28T11:08:11.280Z,78.79
2017-08-28T11:09:12.712Z,78.40
2017-08-28T11:10:14.147Z,78.21
2017-08-28T11:11:15.583Z,78.40
2017-08-28T11:12:17.014Z,77.82
2017-08-28T11:13:18.446Z,77.92
2017-08-28T11:14:19.890Z,77.82
2017-08-28T11:15:21.325Z,80.09
2017-08-28T11:16:22.754Z,79.02
2017-08-28T11:17:24.188Z,78.83
2017-08-28T11:18:25.616Z,78.92
2017-08-28T11:19:27.051Z,78.83
2017-08-28T11:20:28.484Z,80.58
2017-08-28T11:21:29.920Z,79.18
2017-08-28T11:22:31.357Z,79.32
2017-08-28T11:23:32.795Z,80.19
2017-08-28T11:24:34.227Z,83.29
2017-08-28T11:25:35.663Z,81.49
2017-08-28T11:26:37.091Z,82.07
2017-08-28T11:27:38.510Z,78.54
2017-08-28T11:28:39.942Z,76.46
2017-08-28T11:29:41.370Z,78.44
2017-08-28T11:30:42.811Z,76.75
2017-08-28T11:31:44.242Z,79.22
2017-08-28T11:32:45.669Z,79.41
2017-08-28T11:33:47.112Z,78.73
2017-08-28T11:34:48.547Z,75.34
2017-08-28T11:35:49.980Z,75.37
2017-08-28T11:36:51.418Z,75.27
2017-08-28T11:37:52.876Z,76.83
2017-08-28T11:38:54.299Z,76.31
2017-08-28T11:39:55.743Z,76.01
2017-08-28T11:40:57.187Z,75.34
2017-08-28T11:41:58.625Z,76.69
2017-08-28T11:43:00.054Z,75.34
2017-08-28T11:44:01.486Z,77.47
2017-08-28T11:45:02.923Z,76.73
2017-08-28T11:46:04.349Z,76.57
2017-08-28T11:47:05.779Z,75.41
2017-08-28T11:48:07.216Z,72.88
2017-08-28T11:49:08.654Z,71.33
2017-08-28T11:50:10.086Z,71.91
2017-08-28T11:51:11.535Z,72.59
2017-08-28T11:52:12.968Z,71.91
2017-08-28T11:53:14.396Z,71.75
2017-08-28T11:54:15.844Z,71.13
2017-08-28T11:55:17.273Z,72.53
2017-08-28T11:56:18.715Z,72.30
2017-08-28T11:57:20.154Z,72.04
2017-08-28T11:58:21.580Z,73.21
2017-08-28T11:59:23.024Z,72.53
2017-08-28T12:00:24.454Z,69.81
2017-08-28T12:01:25.903Z,72.27
2017-08-28T12:02:27.351Z,73.69
2017-08-28T12:03:28.784Z,75.45
2017-08-28T12:04:30.233Z,74.96
2017-08-28T12:05:31.661Z,75.25
2017-08-28T12:06:33.097Z,74.28
2017-08-28T12:07:34.529Z,72.98
2017-08-28T12:08:35.968Z,73.08
2017-08-28T12:09:37.402Z,73.99
2017-08-28T12:10:38.843Z,72.33
2017-08-28T12:11:40.800Z,71.91
2017-08-28T12:12:42.235Z,72.45
2017-08-28T12:13:43.671Z,72.45
2017-08-28T12:14:45.102Z,72.01
2017-08-28T12:15:46.535Z,70.84
2017-08-28T12:16:47.972Z,72.98
2017-08-28T12:17:49.400Z,71.13
2017-08-28T12:18:50.836Z,71.62
2017-08-28T12:19:52.273Z,72.24
2017-08-28T12:20:53.710Z,71.91
2017-08-28T12:21:55.130Z,71.23
2017-08-28T12:22:56.573Z,71.75
2017-08-28T12:23:58.007Z,73.50
2017-08-28T12:24:59.464Z,73.56
2017-08-28T12:26:00.899Z,73.60
2017-08-28T12:27:02.328Z,74.96
2017-08-28T12:28:03.760Z,71.17
2017-08-28T12:29:05.194Z,71.85
2017-08-28T12:30:06.639Z,72.78
2017-08-28T12:31:08.077Z,72.92
2017-08-28T12:32:09.516Z,72.04
2017-08-28T12:33:10.943Z,72.33
2017-08-28T12:34:12.375Z,73.15
2017-08-28T12:35:13.815Z,74.12
2017-08-28T12:36:15.249Z,72.72
2017-08-28T12:37:16.677Z,72.63
2017-08-28T12:38:18.109Z,72.98
2017-08-28T12:39:19.550Z,71.62
2017-08-28T12:40:20.983Z,74.05
2017-08-28T12:41:22.415Z,73.08
2017-08-28T12:42:23.845Z,72.30
2017-08-28T12:43:25.277Z,71.72
2017-08-28T12:44:26.702Z,72.01
2017-08-28T12:45:28.148Z,73.11
2017-08-28T12:46:29.590Z,72.43
2017-08-28T12:47:31.020Z,72.63
2017-08-28T12:48:32.454Z,72.72
2017-08-28T12:49:33.896Z,72.08
2017-08-28T12:50:35.332Z,73.83
2017-08-28T12:51:36.767Z,75.68
2017-08-28T12:52:38.200Z,74.71
2017-08-28T12:53:39.635Z,77.04
2017-08-28T12:54:41.069Z,75.23
2017-08-28T12:55:42.501Z,77.04
2017-08-28T12:56:43.953Z,75.19
2017-08-28T12:57:45.375Z,75.97
2017-08-28T12:58:46.809Z,72.76
2017-08-28T12:59:48.261Z,72.17
2017-08-28T13:00:49.695Z,71.69
2017-08-28T13:01:51.125Z,71.50
2017-08-28T13:02:52.565Z,71.20
2017-08-28T13:03:53.997Z,71.66
2017-08-28T13:04:55.444Z,72.53
2017-08-28T13:05:56.868Z,71.78
2017-08-28T13:06:58.318Z,70.49
2017-08-28T13:07:59.815Z,71.36
2017-08-28T13:09:01.243Z,70.97
2017-08-28T13:10:02.682Z,71.56
2017-08-28T13:11:04.139Z,73.05